Time;durP1;ratioP1;P1;durP2;ratioP2;P2;SDS_P1;SDS_P2;PMS_P1;PMS_P2;Temp;Humidity;BMP_temperature;BMP_pressure;BME280_temperature;BME280_humidity;BME280_pressure;Samples;Min_cycle;Max_cycle;Signal;HPM_P1;HPM_P2
2021/12/23 00:01:15;;;;;;;31.75;22.30;;;;;;;-2.44;86.21;101692.78;4978057;28;20034;-65
2021/12/23 00:03:41;;;;;;;31.52;22.52;;;;;;;-2.42;86.56;101695.28;4993008;28;20041;-63
2021/12/23 00:06:06;;;;;;;33.88;23.40;;;;;;;-2.42;86.09;101680.03;5000590;28;20065;-64
2021/12/23 00:08:33;;;;;;;32.88;23.38;;;;;;;-2.43;86.41;101669.03;4997355;28;20028;-64
2021/12/23 00:10:58;;;;;;;30.45;22.15;;;;;;;-2.40;86.01;101663.09;5008502;28;20149;-64
2021/12/23 00:13:24;;;;;;;29.98;22.38;;;;;;;-2.40;86.33;101647.84;5000998;28;20477;-63
2021/12/23 00:16:18;;;;;;;33.35;23.58;;;;;;;-2.40;86.13;101637.69;4980112;28;20037;-65
2021/12/23 00:23:49;;;;;;;31.42;22.77;;;;;;;-2.43;85.44;101647.88;4984620;28;20470;-65
2021/12/23 00:26:15;;;;;;;31.02;22.98;;;;;;;-2.43;85.01;101647.88;4968480;28;20503;-64
2021/12/23 00:28:40;;;;;;;33.50;23.90;;;;;;;-2.45;85.02;101649.63;4995305;28;20038;-64
2021/12/23 00:31:06;;;;;;;32.22;22.73;;;;;;;-2.45;85.45;101619.13;5000284;28;20025;-64
2021/12/23 00:33:35;;;;;;;32.25;23.50;;;;;;;-2.46;85.09;101612.38;5007862;28;20466;-64
2021/12/23 00:36:01;;;;;;;34.00;23.17;;;;;;;-2.45;85.47;101614.06;4994568;28;20030;-63
2021/12/23 00:38:30;;;;;;;36.10;24.25;;;;;;;-2.46;85.50;101622.53;4996911;28;20659;-63
2021/12/23 00:40:58;;;;;;;32.90;22.92;;;;;;;-2.44;85.15;101613.19;4993991;28;20121;-65
2021/12/23 00:43:24;;;;;;;33.25;24.35;;;;;;;-2.45;85.42;101619.13;5005764;28;20136;-63
2021/12/23 00:45:50;;;;;;;32.35;23.02;;;;;;;-2.45;85.04;101616.59;5003972;28;20026;-63
2021/12/23 00:48:17;;;;;;;31.52;23.67;;;;;;;-2.44;85.28;101620.81;5000067;28;20042;-63
2021/12/23 00:50:43;;;;;;;31.33;23.92;;;;;;;-2.45;85.18;101611.53;4997662;28;20496;-63
2021/12/23 00:53:10;;;;;;;30.00;23.30;;;;;;;-2.45;85.70;101608.97;5003538;28;20432;-64
2021/12/23 00:55:36;;;;;;;33.92;24.73;;;;;;;-2.48;85.19;101603.94;4972484;28;20030;-65
2021/12/23 00:58:03;;;;;;;32.08;23.98;;;;;;;-2.43;85.63;101607.25;4994730;28;20025;-64
2021/12/23 01:00:28;;;;;;;34.58;25.02;;;;;;;-2.43;85.47;101618.25;5009091;28;20390;-63
2021/12/23 01:02:54;;;;;;;32.25;24.15;;;;;;;-2.43;85.16;101607.25;4994015;28;20467;-65
2021/12/23 01:05:21;;;;;;;30.65;23.52;;;;;;;-2.46;85.20;101617.47;4977706;28;20059;-64
2021/12/23 01:07:48;;;;;;;31.70;24.02;;;;;;;-2.43;84.52;101615.69;4962856;28;20216;-64
2021/12/23 01:10:15;;;;;;;33.60;23.52;;;;;;;-2.43;85.10;101617.41;4953002;29;20490;-63
2021/12/23 01:12:46;;;;;;;32.05;23.70;;;;;;;-2.42;85.82;101608.91;4955508;28;20398;-64
2021/12/23 01:15:27;;;;;;;33.25;23.83;;;;;;;-2.42;85.16;101597.06;4968548;28;20038;-63
2021/12/23 01:18:00;;;;;;;31.77;24.30;;;;;;;-2.44;85.55;101593.72;4987473;28;20052;-63
2021/12/23 01:20:30;;;;;;;33.70;24.42;;;;;;;-2.40;84.28;101589.44;4991524;28;20027;-63
2021/12/23 01:23:07;;;;;;;33.33;23.90;;;;;;;-2.40;85.43;101584.34;4977198;28;20035;-66
2021/12/23 01:25:34;;;;;;;36.15;24.67;;;;;;;-2.39;85.36;101573.31;4973099;28;20378;-63
2021/12/23 01:28:00;;;;;;;33.08;24.80;;;;;;;-2.39;85.24;101568.25;4963194;28;20035;-64
2021/12/23 01:30:26;;;;;;;30.40;23.60;;;;;;;-2.37;84.71;101575.81;4973771;28;20030;-64
2021/12/23 01:32:54;;;;;;;32.05;23.13;;;;;;;-2.38;84.80;101579.25;4979550;28;20030;-63
2021/12/23 01:35:20;;;;;;;38.33;25.25;;;;;;;-2.40;84.64;101579.28;4987227;28;20034;-64
2021/12/23 01:37:45;;;;;;;34.35;25.20;;;;;;;-2.36;85.23;101572.41;4976614;28;20403;-63
2021/12/23 01:40:14;;;;;;;33.25;24.55;;;;;;;-2.36;85.54;101565.63;4969643;28;20459;-63
2021/12/23 01:42:39;;;;;;;33.25;23.60;;;;;;;-2.34;85.02;101561.38;4981308;28;20026;-63
2021/12/23 01:45:14;;;;;;;31.92;25.15;;;;;;;-2.34;84.80;101556.31;4976152;28;20077;-64
2021/12/23 01:47:40;;;;;;;33.28;23.83;;;;;;;-2.34;84.30;101558.84;4974910;28;20030;-63
2021/12/23 01:50:07;;;;;;;32.80;24.52;;;;;;;-2.33;85.37;101550.34;4975065;28;20049;-63
2021/12/23 01:52:33;;;;;;;33.08;24.63;;;;;;;-2.34;84.58;101553.75;4993166;28;20061;-63
2021/12/23 01:54:59;;;;;;;32.97;24.17;;;;;;;-2.33;84.44;101555.44;4979527;28;20030;-64
2021/12/23 01:57:29;;;;;;;32.03;24.90;;;;;;;-2.33;84.73;101542.72;4986027;28;20030;-64
2021/12/23 01:59:55;;;;;;;34.60;24.00;;;;;;;-2.32;84.58;101539.31;4963889;28;20109;-65
2021/12/23 02:02:20;;;;;;;33.45;24.67;;;;;;;-2.30;84.67;101531.66;4973242;28;20125;-63
2021/12/23 02:04:46;;;;;;;32.45;23.90;;;;;;;-2.34;83.90;101523.28;4959476;28;20042;-64
2021/12/23 02:07:11;;;;;;;34.40;24.80;;;;;;;-2.32;84.44;101529.16;4992871;28;20041;-64
2021/12/23 02:09:36;;;;;;;31.83;23.85;;;;;;;-2.33;84.47;101527.50;4982160;28;20121;-63
2021/12/23 02:12:02;;;;;;;32.65;24.80;;;;;;;-2.33;84.85;101521.56;4965901;28;20030;-63
2021/12/23 02:14:28;;;;;;;32.47;23.95;;;;;;;-2.33;84.63;101526.66;4970700;28;20034;-63
2021/12/23 02:16:53;;;;;;;30.92;23.83;;;;;;;-2.34;84.53;101519.91;4979504;28;20038;-64
2021/12/23 02:19:20;;;;;;;32.13;24.02;;;;;;;-2.35;84.19;101521.59;4980830;28;20080;-63
2021/12/23 02:21:47;;;;;;;33.88;23.98;;;;;;;-2.36;84.52;101514.81;4974025;28;20129;-63
2021/12/23 02:24:13;;;;;;;34.58;24.38;;;;;;;-2.36;84.99;101506.38;4969775;28;20026;-64
2021/12/23 02:26:41;;;;;;;34.05;23.42;;;;;;;-2.37;84.56;101512.31;4968731;28;20403;-64
2021/12/23 02:29:07;;;;;;;33.10;23.48;;;;;;;-2.38;83.62;101513.19;4973490;28;20022;-63
2021/12/23 02:31:32;;;;;;;32.35;23.83;;;;;;;-2.39;84.53;101517.44;4974447;28;20411;-63
2021/12/23 02:33:58;;;;;;;32.67;24.35;;;;;;;-2.40;84.57;101523.38;4970590;28;20027;-64
2021/12/23 02:36:24;;;;;;;32.13;23.25;;;;;;;-2.43;84.17;101525.97;4972869;28;20375;-64
2021/12/23 02:38:49;;;;;;;32.42;23.13;;;;;;;-2.44;83.70;101526.84;4984058;28;20077;-63
2021/12/23 02:41:15;;;;;;;30.45;23.52;;;;;;;-2.45;84.38;101527.69;4955439;28;20054;-64
2021/12/23 02:43:40;;;;;;;31.38;22.90;;;;;;;-2.48;84.50;101523.50;4977039;28;20072;-64
2021/12/23 02:46:05;;;;;;;32.35;23.55;;;;;;;-2.48;84.33;101530.28;4965391;28;20026;-63
2021/12/23 02:48:36;;;;;;;35.00;23.30;;;;;;;-2.51;84.60;101517.66;4976705;28;20026;-63
2021/12/23 02:51:07;;;;;;;31.77;23.25;;;;;;;-2.51;84.72;101507.47;4966559;28;20030;-63
2021/12/23 02:53:33;;;;;;;29.40;22.63;;;;;;;-2.56;84.57;101515.16;4991637;28;20030;-65
2021/12/23 02:56:02;;;;;;;30.50;23.63;;;;;;;-2.56;84.47;101499.94;4985496;28;20501;-63
2021/12/23 02:58:28;;;;;;;29.48;22.30;;;;;;;-2.59;84.88;101488.97;4967296;28;20057;-64
2021/12/23 03:00:55;;;;;;;29.77;22.33;;;;;;;-2.60;84.93;101487.31;4966786;28;20486;-64
2021/12/23 03:03:21;;;;;;;30.90;22.42;;;;;;;-2.63;84.30;101479.75;4991812;28;20054;-63
2021/12/23 03:05:52;;;;;;;30.67;22.63;;;;;;;-2.64;84.14;101475.50;4991429;28;20143;-64
2021/12/23 03:08:36;;;;;;;30.80;22.58;;;;;;;-2.67;84.59;101471.34;4985665;28;20386;-64
2021/12/23 03:11:04;;;;;;;31.73;22.05;;;;;;;-2.72;84.49;101468.88;4996612;28;20471;-64
2021/12/23 03:13:30;;;;;;;30.20;21.55;;;;;;;-2.76;84.51;101461.31;4997008;28;20042;-64
2021/12/23 03:15:55;;;;;;;31.63;22.42;;;;;;;-2.80;84.83;101470.72;4968733;28;20100;-63
2021/12/23 03:18:21;;;;;;;32.30;22.83;;;;;;;-2.80;84.74;101473.25;4999752;28;20030;-63
2021/12/23 03:20:46;;;;;;;29.65;22.42;;;;;;;-2.83;84.73;101463.13;4994454;28;20105;-64
2021/12/23 03:23:12;;;;;;;32.20;22.02;;;;;;;-2.85;84.22;101457.25;5003471;28;20030;-63
2021/12/23 03:25:37;;;;;;;30.02;22.23;;;;;;;-2.93;84.64;101451.44;4998621;28;20462;-65
2021/12/23 03:28:03;;;;;;;28.17;21.05;;;;;;;-2.91;84.43;101454.81;4991335;28;20041;-64
2021/12/23 03:30:28;;;;;;;32.20;22.02;;;;;;;-2.94;84.84;101447.22;4990260;28;20498;-63
2021/12/23 03:32:53;;;;;;;31.67;23.02;;;;;;;-2.99;84.88;101438.84;4972133;28;20041;-64
2021/12/23 03:35:19;;;;;;;33.30;21.90;;;;;;;-2.99;84.95;101449.00;4977580;28;20081;-63
2021/12/23 03:37:45;;;;;;;30.65;22.13;;;;;;;-3.05;85.03;101441.47;5011117;28;20545;-65
2021/12/23 03:40:11;;;;;;;29.98;21.48;;;;;;;-3.04;84.86;101426.25;4999881;28;20359;-64
2021/12/23 03:42:37;;;;;;;30.27;22.27;;;;;;;-3.07;85.08;101410.22;4999204;28;20042;-64
2021/12/23 03:45:05;;;;;;;32.95;22.65;;;;;;;-3.08;84.95;101403.50;4980183;28;20479;-65
2021/12/23 03:47:30;;;;;;;30.37;21.90;;;;;;;-3.10;85.00;101400.13;4999112;28;20030;-65
2021/12/23 03:49:55;;;;;;;29.95;21.27;;;;;;;-3.13;84.70;101390.03;4989354;28;20034;-65
2021/12/23 03:52:21;;;;;;;32.17;22.83;;;;;;;-3.15;84.66;101374.84;4999135;28;20399;-63
2021/12/23 03:54:46;;;;;;;30.63;22.40;;;;;;;-3.14;85.18;101380.75;5007477;28;20037;-63
2021/12/23 03:57:11;;;;;;;32.13;22.20;;;;;;;-3.13;85.34;101384.97;4998871;28;20200;-63
2021/12/23 03:59:37;;;;;;;29.92;22.42;;;;;;;-3.15;85.47;101376.50;4987379;28;20045;-63
2021/12/23 04:02:03;;;;;;;30.63;22.73;;;;;;;-3.18;85.55;101384.19;4998613;28;20026;-65
2021/12/23 04:04:29;;;;;;;31.10;22.15;;;;;;;-3.14;85.29;101388.38;5012590;28;20605;-65
2021/12/23 04:06:54;;;;;;;33.20;22.90;;;;;;;-3.14;85.80;101373.16;4994801;28;20116;-63
2021/12/23 04:09:20;;;;;;;30.83;22.38;;;;;;;-3.13;85.27;101365.50;4990782;28;20474;-64
2021/12/23 04:11:45;;;;;;;33.83;23.88;;;;;;;-3.17;85.80;101363.03;4997473;28;20026;-64
2021/12/23 04:14:11;;;;;;;34.10;24.35;;;;;;;-3.12;85.56;101384.09;4976682;28;20076;-63
2021/12/23 04:16:36;;;;;;;32.05;23.80;;;;;;;-3.12;85.92;101386.63;5002426;28;20033;-64
2021/12/23 04:19:07;;;;;;;33.72;24.17;;;;;;;-3.11;85.76;101388.31;4994689;28;20054;-63
2021/12/23 04:21:32;;;;;;;35.33;25.27;;;;;;;-3.12;85.37;101387.47;4978513;28;20038;-64
2021/12/23 04:23:58;;;;;;;34.70;23.85;;;;;;;-3.08;86.09;101368.81;4995647;28;20037;-63
2021/12/23 04:26:23;;;;;;;34.22;25.08;;;;;;;-3.10;85.81;101364.59;4983810;28;20034;-63
2021/12/23 04:28:49;;;;;;;36.75;26.48;;;;;;;-3.04;85.91;101374.66;4978866;28;20030;-63
2021/12/23 04:31:18;;;;;;;40.10;26.52;;;;;;;-3.02;85.92;101362.78;4983789;28;20029;-63
2021/12/23 04:33:48;;;;;;;39.10;27.48;;;;;;;-3.00;85.59;101371.19;5003176;28;20022;-64
2021/12/23 04:36:15;;;;;;;40.58;27.42;;;;;;;-2.99;86.36;101353.41;4999245;28;21518;-63
2021/12/23 04:38:42;;;;;;;40.30;27.02;;;;;;;-2.96;85.87;101347.44;4997177;28;20427;-63
2021/12/23 04:41:07;;;;;;;38.78;26.73;;;;;;;-2.93;86.27;101352.47;4976455;28;20030;-63
2021/12/23 04:43:33;;;;;;;40.30;26.38;;;;;;;-2.93;86.14;101334.69;4997310;28;20101;-64
2021/12/23 04:45:59;;;;;;;39.17;27.27;;;;;;;-2.90;86.06;101332.13;4982095;28;20025;-63
2021/12/23 04:48:24;;;;;;;36.40;27.13;;;;;;;-2.87;85.49;101337.13;4984512;28;20033;-64
2021/12/23 04:50:50;;;;;;;39.03;27.45;;;;;;;-2.85;85.94;101343.03;4987015;28;20026;-64
2021/12/23 04:53:15;;;;;;;40.45;27.98;;;;;;;-2.83;86.08;101341.28;4976845;28;20030;-63
2021/12/23 04:55:42;;;;;;;38.53;27.48;;;;;;;-2.81;86.28;101338.72;5002985;28;20470;-63
2021/12/23 04:58:08;;;;;;;39.78;28.38;;;;;;;-2.79;86.28;101335.31;5001902;28;20077;-63
2021/12/23 05:00:34;;;;;;;41.10;28.38;;;;;;;-2.78;86.21;101321.75;5008656;28;20033;-63
2021/12/23 05:02:59;;;;;;;41.42;28.88;;;;;;;-2.77;86.09;101320.88;4995693;28;20036;-64
2021/12/23 05:05:25;;;;;;;42.67;29.92;;;;;;;-2.76;86.39;101317.47;4978530;28;20125;-63
2021/12/23 05:07:50;;;;;;;44.17;29.67;;;;;;;-2.74;85.85;101315.75;4984882;28;20477;-64
2021/12/23 05:10:16;;;;;;;43.60;29.85;;;;;;;-2.70;85.70;101312.25;4990002;28;20582;-64
2021/12/23 05:12:44;;;;;;;39.95;28.35;;;;;;;-2.67;86.30;101308.84;4998598;28;20042;-63
2021/12/23 05:15:11;;;;;;;42.20;28.80;;;;;;;-2.65;85.78;101316.44;4980647;28;20036;-63
2021/12/23 05:17:37;;;;;;;43.47;28.55;;;;;;;-2.64;85.86;101323.16;4978522;28;20093;-64
2021/12/23 05:20:07;;;;;;;50.45;33.10;;;;;;;-2.63;86.04;101314.72;4992835;28;20025;-65
2021/12/23 05:22:33;;;;;;;41.80;28.77;;;;;;;-2.63;86.19;101305.41;4988750;28;20092;-64
2021/12/23 05:24:58;;;;;;;43.33;29.95;;;;;;;-2.58;85.96;101312.91;4993015;28;20462;-65
2021/12/23 05:27:23;;;;;;;39.90;28.30;;;;;;;-2.57;85.95;101309.53;4994463;28;20029;-64
2021/12/23 05:29:49;;;;;;;40.47;29.17;;;;;;;-2.56;86.11;101304.41;5003772;28;20030;-64
2021/12/23 05:32:14;;;;;;;39.60;28.25;;;;;;;-2.54;86.04;101299.28;4991594;28;20022;-64
2021/12/23 05:34:40;;;;;;;42.78;28.90;;;;;;;-2.53;86.19;101311.94;4983715;28;20025;-64
2021/12/23 05:37:05;;;;;;;40.55;28.60;;;;;;;-2.50;86.03;101290.75;5010353;28;20033;-64
2021/12/23 05:39:31;;;;;;;43.55;29.95;;;;;;;-2.49;85.71;101297.50;4987202;28;20065;-63
2021/12/23 05:41:56;;;;;;;42.72;28.92;;;;;;;-2.46;86.05;101302.53;4993837;28;20037;-64
2021/12/23 05:44:21;;;;;;;46.63;30.15;;;;;;;-2.48;86.23;101289.00;4985271;28;20057;-63
2021/12/23 05:46:47;;;;;;;42.75;29.85;;;;;;;-2.45;85.71;101283.88;4990103;28;20475;-64
2021/12/23 05:49:12;;;;;;;43.17;29.05;;;;;;;-2.44;86.09;101283.00;4982549;28;20030;-65
2021/12/23 05:51:38;;;;;;;42.65;29.27;;;;;;;-2.44;85.72;101285.53;4979659;28;20414;-66
2021/12/23 05:54:04;;;;;;;45.47;30.98;;;;;;;-2.44;85.82;101288.06;4977167;28;20034;-63
2021/12/23 05:56:29;;;;;;;44.75;30.17;;;;;;;-2.43;85.71;101277.03;4985941;28;20466;-64
2021/12/23 05:58:55;;;;;;;46.05;31.13;;;;;;;-2.42;85.41;101286.34;5002375;28;20030;-64
2021/12/23 06:01:20;;;;;;;44.45;30.05;;;;;;;-2.42;85.28;101293.94;5008934;28;20022;-64
2021/12/23 06:03:46;;;;;;;42.95;29.52;;;;;;;-2.47;85.85;101277.97;4985140;28;20082;-64
2021/12/23 06:06:13;;;;;;;44.80;30.75;;;;;;;-2.48;85.89;101279.66;4966487;28;20045;-64
2021/12/23 06:08:39;;;;;;;45.17;30.42;;;;;;;-2.46;85.37;101272.03;4983848;28;20035;-64
2021/12/23 06:11:05;;;;;;;46.20;30.67;;;;;;;-2.44;85.65;101280.47;4989171;28;20018;-64
2021/12/23 06:13:31;;;;;;;43.30;30.40;;;;;;;-2.43;85.41;101290.56;4984356;28;20034;-64
2021/12/23 06:15:56;;;;;;;46.17;30.27;;;;;;;-2.42;85.41;101273.63;4983812;28;20061;-65
2021/12/23 06:18:21;;;;;;;46.63;31.33;;;;;;;-2.44;85.94;101271.13;4982253;28;20030;-63
2021/12/23 06:20:47;;;;;;;44.65;30.33;;;;;;;-2.44;86.09;101270.31;4983947;28;20026;-65
2021/12/23 06:23:12;;;;;;;47.40;31.30;;;;;;;-2.45;85.61;101250.84;4979837;28;20105;-63
2021/12/23 06:25:38;;;;;;;48.08;31.33;;;;;;;-2.46;86.03;101247.47;4987058;28;20099;-63
2021/12/23 06:28:04;;;;;;;44.38;30.52;;;;;;;-2.43;85.31;101246.56;4989529;28;20455;-64
2021/12/23 06:30:29;;;;;;;45.60;30.42;;;;;;;-2.42;85.60;101243.16;5008057;28;20029;-64
2021/12/23 06:32:56;;;;;;;48.85;31.80;;;;;;;-2.42;85.97;101243.16;4985957;28;20360;-67
2021/12/23 06:35:24;;;;;;;46.67;31.92;;;;;;;-2.42;85.57;101238.06;4994692;28;20455;-63
2021/12/23 06:37:50;;;;;;;48.25;29.92;;;;;;;-2.44;85.96;101237.28;5007915;28;20034;-63
2021/12/23 06:40:16;;;;;;;49.05;31.70;;;;;;;-2.43;85.25;101232.16;4967746;28;20038;-64
2021/12/23 06:42:43;;;;;;;47.88;31.58;;;;;;;-2.42;86.01;101238.06;4983313;28;20030;-63
2021/12/23 06:45:09;;;;;;;44.72;29.67;;;;;;;-2.46;85.90;101226.34;4987675;28;20068;-63
2021/12/23 06:47:36;;;;;;;46.65;31.60;;;;;;;-2.43;86.25;101216.91;4983442;28;20456;-64
2021/12/23 06:50:04;;;;;;;45.78;30.70;;;;;;;-2.44;86.32;101214.41;4989320;28;20541;-63
2021/12/23 06:52:30;;;;;;;52.17;32.58;;;;;;;-2.44;86.54;101206.81;4991571;28;20549;-64
2021/12/23 06:54:56;;;;;;;49.80;31.85;;;;;;;-2.42;85.67;101212.69;4999348;28;20037;-65
2021/12/23 06:57:22;;;;;;;51.83;32.88;;;;;;;-2.40;86.27;101221.13;4979693;28;20073;-64
2021/12/23 06:59:47;;;;;;;47.90;31.45;;;;;;;-2.38;85.87;101226.16;4994547;28;20084;-64
2021/12/23 07:02:13;;;;;;;48.40;32.60;;;;;;;-2.39;86.01;101238.03;4975099;28;20067;-64
2021/12/23 07:04:40;;;;;;;50.88;31.25;;;;;;;-2.36;86.37;101243.03;4992648;28;20428;-64
2021/12/23 07:07:10;;;;;;;52.00;32.90;;;;;;;-2.34;85.87;101246.38;5000641;28;20033;-64
2021/12/23 07:09:37;;;;;;;51.47;34.50;;;;;;;-2.33;86.14;101231.97;4995425;28;21497;-65
2021/12/23 07:12:04;;;;;;;49.92;33.83;;;;;;;-2.30;86.37;101237.81;4994654;28;20053;-65
2021/12/23 07:14:29;;;;;;;51.63;34.28;;;;;;;-2.28;86.86;101236.09;4996809;28;20038;-62
2021/12/23 07:16:54;;;;;;;52.22;34.22;;;;;;;-2.26;86.37;101233.50;5001058;28;20052;-62
2021/12/23 07:19:20;;;;;;;52.20;34.50;;;;;;;-2.25;86.38;101230.91;4988178;28;20041;-63
2021/12/23 07:21:45;;;;;;;52.35;33.85;;;;;;;-2.22;85.69;101219.88;4983007;28;20027;-62
2021/12/23 07:24:10;;;;;;;50.25;32.75;;;;;;;-2.20;85.74;101229.13;4989535;28;20140;-64
2021/12/23 07:26:36;;;;;;;53.08;35.28;;;;;;;-2.21;86.19;101227.44;4969810;28;20126;-62
2021/12/23 07:29:02;;;;;;;52.88;34.28;;;;;;;-2.19;85.55;101240.94;4980278;28;20117;-64
2021/12/23 07:31:29;;;;;;;52.38;33.05;;;;;;;-2.16;85.99;101245.13;4982667;28;20049;-64
2021/12/23 07:33:54;;;;;;;49.17;33.72;;;;;;;-2.15;86.07;101237.47;4985199;28;20038;-63
2021/12/23 07:36:22;;;;;;;52.33;34.92;;;;;;;-2.14;85.98;101226.44;5001990;28;20029;-63
2021/12/23 07:38:48;;;;;;;51.03;32.15;;;;;;;-2.13;86.51;101225.56;4993712;28;20038;-63
2021/12/23 07:41:13;;;;;;;50.38;33.58;;;;;;;-2.09;85.81;101225.50;4982628;28;20081;-63
2021/12/23 07:46:05;;;;;;;50.95;33.20;;;;;;;-2.06;86.51;101244.06;4981113;28;20113;-63
2021/12/23 07:48:31;;;;;;;51.58;33.50;;;;;;;-2.06;86.34;101236.44;4969935;28;20481;-64
2021/12/23 07:50:58;;;;;;;47.80;32.10;;;;;;;-2.01;85.40;101238.88;4982052;28;20030;-64
2021/12/23 07:53:23;;;;;;;50.53;32.95;;;;;;;-1.99;86.41;101232.06;4994816;28;20391;-65
2021/12/23 07:55:49;;;;;;;48.45;32.08;;;;;;;-1.98;86.47;101229.47;4975220;28;20041;-66
2021/12/23 07:58:15;;;;;;;54.55;34.65;;;;;;;-1.96;86.24;101221.81;4982316;28;20027;-64
2021/12/23 08:00:41;;;;;;;51.03;32.78;;;;;;;-1.94;86.00;101230.25;4977694;28;20117;-64
2021/12/23 08:03:06;;;;;;;47.30;30.30;;;;;;;-1.97;86.43;101226.06;4980169;28;20022;-65
2021/12/23 08:05:33;;;;;;;46.47;31.23;;;;;;;-1.92;86.49;101223.41;4990291;28;20061;-65
2021/12/23 08:07:59;;;;;;;48.63;31.33;;;;;;;-1.93;85.94;101216.66;4999591;28;20139;-64
2021/12/23 08:10:24;;;;;;;49.20;31.95;;;;;;;-1.89;86.21;101218.28;4975011;28;20518;-65
2021/12/23 08:12:50;;;;;;;50.00;30.85;;;;;;;-1.88;85.75;101219.94;4970604;28;20413;-63
2021/12/23 08:15:15;;;;;;;52.65;33.22;;;;;;;-1.85;86.41;101224.09;4977637;28;20437;-63
2021/12/23 08:17:41;;;;;;;51.33;31.70;;;;;;;-1.84;85.96;101226.59;4979973;28;20085;-63
2021/12/23 08:20:07;;;;;;;50.28;31.88;;;;;;;-1.82;85.97;101229.94;4968629;28;20027;-63
2021/12/23 08:22:33;;;;;;;48.15;29.98;;;;;;;-1.82;86.00;101224.88;4980098;28;20041;-64
2021/12/23 08:24:58;;;;;;;48.10;29.90;;;;;;;-1.79;86.26;101224.78;4990221;28;20459;-63
2021/12/23 08:27:27;;;;;;;53.40;32.50;;;;;;;-1.75;86.41;101211.13;4988609;28;20382;-64
2021/12/23 08:29:53;;;;;;;50.05;31.05;;;;;;;-1.75;86.13;101200.97;4972937;28;20042;-63
2021/12/23 08:32:20;;;;;;;47.47;30.42;;;;;;;-1.72;85.96;101198.34;4984342;28;20088;-64
2021/12/23 08:34:46;;;;;;;48.58;30.80;;;;;;;-1.71;86.25;101201.72;4980957;28;20133;-64
2021/12/23 08:37:12;;;;;;;46.47;31.05;;;;;;;-1.69;86.09;101192.34;4970658;28;20109;-64
2021/12/23 08:39:39;;;;;;;48.35;31.55;;;;;;;-1.69;86.52;101193.19;4984693;28;20031;-64
2021/12/23 08:42:05;;;;;;;47.30;31.23;;;;;;;-1.67;86.52;101188.03;4991078;28;20070;-64
2021/12/23 08:44:30;;;;;;;52.10;31.55;;;;;;;-1.64;86.14;101188.81;4988990;28;20478;-64
2021/12/23 08:46:55;;;;;;;49.78;31.63;;;;;;;-1.63;86.69;101172.69;4990144;28;20531;-64
2021/12/23 08:49:21;;;;;;;51.05;31.95;;;;;;;-1.59;86.57;101167.53;4992531;28;20030;-64
2021/12/23 08:51:46;;;;;;;48.90;32.00;;;;;;;-1.56;86.51;101159.78;5000058;28;20034;-64
2021/12/23 08:54:12;;;;;;;48.67;31.02;;;;;;;-1.53;86.34;101159.72;4991858;28;20030;-64
2021/12/23 08:56:38;;;;;;;47.65;31.05;;;;;;;-1.51;86.48;101158.81;5001984;28;20030;-64
2021/12/23 08:59:04;;;;;;;47.10;31.90;;;;;;;-1.50;86.40;101154.53;5005906;28;20030;-65
2021/12/23 09:01:30;;;;;;;48.78;30.42;;;;;;;-1.47;86.47;101164.66;4995619;28;20061;-65
2021/12/23 09:03:55;;;;;;;46.92;30.50;;;;;;;-1.46;86.52;101166.31;4999178;28;20449;-64
2021/12/23 09:06:20;;;;;;;52.13;32.10;;;;;;;-1.44;86.20;101169.66;4993514;28;20443;-64
2021/12/23 09:08:46;;;;;;;49.88;30.48;;;;;;;-1.41;86.12;101159.41;5007971;28;20128;-65
2021/12/23 09:11:11;;;;;;;48.53;31.35;;;;;;;-1.39;85.98;101162.72;5013606;28;20388;-65
2021/12/23 09:13:36;;;;;;;48.97;30.60;;;;;;;-1.40;85.84;101148.34;4995592;28;20042;-64
2021/12/23 09:16:02;;;;;;;49.47;30.60;;;;;;;-1.33;85.60;101160.03;4993948;28;20543;-65
2021/12/23 09:18:27;;;;;;;47.95;30.15;;;;;;;-1.29;86.34;101153.16;5002091;28;20037;-64
2021/12/23 09:20:55;;;;;;;47.75;30.20;;;;;;;-1.27;86.18;101151.38;5006986;28;20486;-65
2021/12/23 09:23:21;;;;;;;46.70;30.92;;;;;;;-1.25;86.04;101160.66;5004142;28;20037;-64
2021/12/23 09:25:48;;;;;;;45.63;29.40;;;;;;;-1.22;85.79;101145.28;4985116;28;20089;-65
2021/12/23 09:33:24;;;;;;;47.83;30.58;;;;;;;-1.16;86.16;101145.13;4984839;28;20049;-64
2021/12/23 09:35:49;;;;;;;46.08;30.50;;;;;;;-1.17;86.11;101148.56;4998700;28;20030;-65
2021/12/23 09:38:16;;;;;;;47.53;30.83;;;;;;;-1.12;85.85;101151.81;4992995;28;20026;-66
2021/12/23 09:40:43;;;;;;;47.58;30.95;;;;;;;-1.10;85.87;101144.94;4987773;28;20034;-64
2021/12/23 09:43:13;;;;;;;50.17;32.15;;;;;;;-1.03;85.82;101124.41;4993243;28;20113;-65
2021/12/23 09:45:41;;;;;;;47.60;31.13;;;;;;;-1.01;85.86;101126.06;4989015;28;20037;-65
2021/12/23 09:48:08;;;;;;;46.70;29.30;;;;;;;-0.99;86.08;101115.81;4993618;28;20038;-65
2021/12/23 09:50:38;;;;;;;46.40;29.83;;;;;;;-0.97;86.02;101114.06;4986272;28;20034;-65
2021/12/23 09:53:05;;;;;;;45.83;29.90;;;;;;;-0.95;86.15;101113.16;4980111;28;20061;-64
2021/12/23 09:55:34;;;;;;;47.50;31.55;;;;;;;-0.91;85.84;101113.91;4984466;28;20110;-65
2021/12/23 09:57:59;;;;;;;45.88;29.77;;;;;;;-0.90;85.85;101110.47;5003059;28;20026;-65
2021/12/23 10:00:30;;;;;;;48.05;30.80;;;;;;;-0.86;85.73;101114.56;4998773;28;20060;-65
2021/12/23 10:02:57;;;;;;;46.60;30.40;;;;;;;-0.86;85.73;101106.94;4990168;28;20030;-65
2021/12/23 10:05:27;;;;;;;45.97;30.83;;;;;;;-0.87;85.34;101102.72;4987612;28;20057;-65
2021/12/23 10:07:54;;;;;;;47.13;30.58;;;;;;;-0.82;85.80;101098.31;4985269;28;20018;-64
2021/12/23 10:10:36;;;;;;;50.60;30.98;;;;;;;-0.80;86.06;101099.13;4968460;28;20470;-65
2021/12/23 10:27:30;;;;;;;47.15;29.30;;;;;;;-0.59;85.74;101080.63;4966174;28;20093;-64
2021/12/23 10:33:26;;;;;;;48.60;30.50;;;;;;;-0.51;85.87;101052.38;4928752;28;20068;-64
2021/12/23 10:38:42;;;;;;;45.55;29.23;;;;;;;-0.46;85.65;101029.28;4966719;28;20113;-65
2021/12/23 10:41:12;;;;;;;49.08;29.85;;;;;;;-0.43;85.46;101035.13;4946359;28;20034;-65
2021/12/23 10:44:00;;;;;;;48.25;28.70;;;;;;;-0.38;85.63;101032.44;4968258;28;20026;-65
2021/12/23 10:46:39;;;;;;;47.40;28.98;;;;;;;-0.35;85.45;101032.31;4962249;28;20027;-65
2021/12/23 10:52:05;;;;;;;44.00;28.63;;;;;;;-0.28;85.55;101018.50;4962885;28;19965;-66
2021/12/23 11:00:26;;;;;;;46.20;29.63;;;;;;;-0.21;85.72;101004.66;4963346;28;20090;-65
2021/12/23 11:03:18;;;;;;;46.55;28.85;;;;;;;-0.17;85.45;101006.22;4956515;28;20073;-65
2021/12/23 11:06:02;;;;;;;45.15;28.60;;;;;;;-0.15;86.06;100994.25;4987929;28;20041;-66
2021/12/23 11:37:15;;;;;;;44.63;28.90;;;;;;;0.28;85.70;100951.91;4929177;29;20066;-65
2021/12/23 11:39:53;;;;;;;47.80;29.73;;;;;;;0.32;85.59;100945.81;4969633;28;20077;-65
2021/12/23 11:42:38;;;;;;;45.38;28.52;;;;;;;0.35;86.01;100947.44;4979113;28;20028;-66
2021/12/23 11:45:03;;;;;;;44.53;28.80;;;;;;;0.42;85.72;100939.47;4982876;28;20027;-65
2021/12/23 11:47:29;;;;;;;45.97;29.73;;;;;;;0.45;85.80;100929.16;4982355;28;20033;-65
2021/12/23 11:49:56;;;;;;;42.92;29.05;;;;;;;0.47;85.88;100924.84;4979134;28;20027;-65
2021/12/23 11:52:22;;;;;;;44.97;30.55;;;;;;;0.55;85.70;100913.50;4977080;28;20391;-65
2021/12/23 11:54:47;;;;;;;43.63;28.75;;;;;;;0.63;86.09;100912.31;4981602;28;20456;-65
2021/12/23 11:57:21;;;;;;;43.55;27.70;;;;;;;0.68;85.80;100912.13;4981931;28;20026;-67
2021/12/23 12:00:09;;;;;;;43.85;28.73;;;;;;;0.74;85.52;100899.94;4970232;28;20140;-65
2021/12/23 12:02:35;;;;;;;44.10;28.70;;;;;;;0.81;85.67;100900.56;4969095;28;20467;-65
2021/12/23 12:05:05;;;;;;;42.90;27.08;;;;;;;0.86;85.54;100893.53;4978500;28;20058;-66
2021/12/23 12:07:30;;;;;;;42.33;28.17;;;;;;;0.95;85.58;100888.03;4987729;28;20030;-65
2021/12/23 12:10:12;;;;;;;40.80;27.60;;;;;;;1.00;85.27;100881.03;4984000;28;20060;-65
2021/12/23 12:13:03;;;;;;;43.88;28.08;;;;;;;1.08;85.08;100867.09;4973019;28;20030;-65
2021/12/23 12:15:37;;;;;;;43.88;26.98;;;;;;;1.13;85.11;100867.75;4967141;28;20066;-65
2021/12/23 12:18:05;;;;;;;43.10;27.77;;;;;;;1.17;85.21;100866.75;4985101;28;20038;-65
2021/12/23 12:20:38;;;;;;;39.83;27.50;;;;;;;1.22;85.05;100854.59;4999813;28;20022;-65